Flight Track Log - Related Links

Times and Time Zones

All times are in EDT time to prevent confusion due to time zone crossing. See the AIC102 flight status page for this flight to view local times or setup timezone preferences in your user account.


Time Position Orientation Groundspeed Altitude Reporting Facility
EDT Latitude Longitude Course Direction KTS MPH feet Rate Location/Type
Thu 06:15:42 PM 40.6000 -73.8000 207° Southwest 191 220 2,200  Level New York TRACON
Thu 06:16:42 PM 40.5500 -73.8333 118° Southeast 228 262 3,900 2,050 Climbing New York TRACON
Thu 06:17:42 PM 40.5167 -73.7500 62° Northeast 286 329 6,300 2,500 Climbing New York TRACON
Thu 06:18:42 PM 40.5500 -73.6667 37° Northeast 299 344 8,900 2,350 Climbing New York TRACON
Thu 06:19:42 PM 40.6167 -73.6000 37° Northeast 323 372 11,000 1,050 Climbing New York TRACON
Thu 06:20:42 PM 40.7000 -73.5167 37° Northeast 384 442 11,000  Level New York TRACON
Thu 06:21:42 PM 40.8000 -73.4167 16° North 385 443 11,000 1,160 Level New York TRACON
Thu 06:24:45 PM 41.0800 -73.3103 16° North 373 429 15,700 1,481 Climbing Boston Center
Thu 06:25:45 PM 41.1928 -73.2675 27° Northeast 394 453 17,000 1,450 Climbing Boston Center
Thu 06:26:45 PM 41.3122 -73.1861 35° Northeast 418 481 18,600 1,800 Climbing Boston Center
Thu 06:27:45 PM 41.4022 -73.1014 59° Northeast 424 488 20,600 2,050 Climbing Boston Center
Thu 06:28:45 PM 41.4697 -72.9525 61° Northeast 429 494 22,700 1,200 Climbing Boston Center
Thu 06:29:45 PM 41.5308 -72.8033 61° Northeast 449 517 23,000 150 Climbing Boston Center
Thu 06:30:45 PM 41.5936 -72.6539 59° Northeast 449 517 23,000  Level Boston Center
Thu 06:31:45 PM 41.6606 -72.5067 60° Northeast 455 524 23,000 50 Level Boston Center
Thu 06:32:45 PM 41.7250 -72.3594 59° Northeast 461 531 23,100 1,000 Climbing Boston Center
Thu 06:33:45 PM 41.7936 -72.2089 58° Northeast 466 536 25,000 1,850 Climbing Boston Center
Thu 06:34:45 PM 41.8642 -72.0553 59° Northeast 471 542 26,800 1,650 Climbing Boston Center
Thu 06:35:45 PM 41.9364 -71.8903 46° Northeast 484 557 28,300 1,500 Climbing Boston Center
Thu 06:36:45 PM 42.0356 -71.7525 53° Northeast 492 566 29,800 1,850 Climbing Boston Center
Thu 06:37:45 PM 42.1222 -71.5975 55° Northeast 509 586 32,000 1,600 Climbing Boston Center
Thu 06:38:45 PM 42.2103 -71.4283 52° Northeast 504 580 33,000 500 Climbing Boston Center
Thu 06:39:45 PM 42.2986 -71.2753 46° Northeast 504 580 33,000  Level Boston Center
Thu 06:40:45 PM 42.3950 -71.1414 39° Northeast 504 580 33,000  Level Boston Center
Thu 06:41:45 PM 42.5061 -71.0206 39° Northeast 499 574 33,000 550 Level Boston Center
Thu 06:42:45 PM 42.6172 -70.8997 38° Northeast 505 581 34,100 1,000 Climbing Boston Center
Thu 06:43:45 PM 42.7281 -70.7811 39° Northeast 505 581 35,000 450 Climbing Boston Center
Thu 06:44:45 PM 42.8386 -70.6592 40° Northeast 510 587 35,000  Level Boston Center
Thu 06:45:45 PM 42.9472 -70.5367 39° Northeast 510 587 35,000  Level Boston Center
Thu 06:46:45 PM 43.0578 -70.4139 40° Northeast 510 587 35,000  Level Boston Center
Thu 06:47:45 PM 43.1639 -70.2939 40° Northeast 505 581 35,000  Level Boston Center
Thu 06:48:45 PM 43.2719 -70.1703 40° Northeast 505 581 35,000  Level Boston Center
Thu 06:49:45 PM 43.3758 -70.0519 39° Northeast 505 581 35,000  Level Boston Center
Thu 06:50:45 PM 43.4856 -69.9275 39° Northeast 505 581 35,000  Level Boston Center
Thu 06:51:45 PM 43.5956 -69.8025 39° Northeast 505 581 35,000  Level Boston Center
Thu 06:52:45 PM 43.7050 -69.6800 40° Northeast 505 581 35,000  Level Boston Center
Thu 06:53:45 PM 43.8144 -69.5542 40° Northeast 510 587 35,000  Level Boston Center
Thu 06:54:45 PM 43.9219 -69.4306 40° Northeast 510 587 35,000  Level Boston Center
Thu 06:55:45 PM 44.0311 -69.3039 40° Northeast 510 587 35,000  Level Boston Center
Thu 06:56:45 PM 44.1400 -69.1767 40° Northeast 510 587 35,000  Level Boston Center
Thu 06:57:45 PM 44.2469 -69.0519 39° Northeast 510 587 35,000  Level Boston Center
Thu 06:58:45 PM 44.3578 -68.9264 41° Northeast 510 587 35,000  Level Boston Center
Thu 06:59:45 PM 44.4642 -68.7981 40° Northeast 510 587 35,000  Level Boston Center
Thu 07:00:45 PM 44.5747 -68.6686 40° Northeast 510 587 35,000  Level Boston Center
Thu 07:01:45 PM 44.6808 -68.5419 40° Northeast 510 587 35,000  Level Boston Center
Thu 07:02:45 PM 44.7892 -68.4119 40° Northeast 510 587 35,000  Level Boston Center
Thu 07:03:45 PM 44.8989 -68.2811 40° Northeast 510 587 35,000  Level Boston Center
Thu 07:04:45 PM 45.0047 -68.1533 41° Northeast 510 587 35,000  Level Boston Center
Thu 07:05:45 PM 45.1144 -68.0186 41° Northeast 510 587 35,000  Level Boston Center
Thu 07:06:45 PM 45.2197 -67.8867 40° Northeast 510 587 35,000  Level Boston Center
Thu 07:07:45 PM 45.3292 -67.7569 43° Northeast 510 587 35,000  Level Boston Center
Thu 07:08:44 PM 45.4333 -67.6167 48° Northeast 510 587 35,000  Level Moncton Center
Thu 07:09:44 PM 45.5167 -67.4833 42° Northeast 520 598 35,000  Level Moncton Center
Thu 07:10:44 PM 45.6333 -67.3333 43° Northeast 520 598 35,000  Level Moncton Center
Thu 07:11:44 PM 45.7333 -67.2000 39° Northeast 520 598 35,000  Level Moncton Center
Thu 07:12:44 PM 45.8500 -67.0667 46° Northeast 520 598 35,000  Level Moncton Center
Thu 07:13:44 PM 45.9500 -66.9167 43° Northeast 520 598 35,000  Level Moncton Center
Thu 07:14:44 PM 46.0500 -66.7833 49° Northeast 520 598 35,000  Level Moncton Center
Thu 07:15:44 PM 46.1500 -66.6167 43° Northeast 520 598 35,000  Level Moncton Center
Thu 07:16:44 PM 46.2500 -66.4833 42° Northeast 520 598 35,000  Level Moncton Center
Thu 07:17:44 PM 46.3667 -66.3333 43° Northeast 520 598 35,000  Level Moncton Center
Thu 07:18:44 PM 46.4667 -66.2000 46° Northeast 520 598 35,000  Level Moncton Center
Thu 07:19:44 PM 46.5667 -66.0500 42° Northeast 520 598 35,000  Level Moncton Center
Thu 07:20:44 PM 46.6667 -65.9167 46° Northeast 520 598 35,000  Level Moncton Center
Thu 07:21:44 PM 46.7667 -65.7667 44° Northeast 520 598 35,000  Level Moncton Center
Thu 07:22:44 PM 46.8833 -65.6000 41° Northeast 520 598 35,000  Level Moncton Center
Thu 07:23:44 PM 47.0000 -65.4500 46° Northeast 530 610 35,000  Level Moncton Center
Thu 07:24:44 PM 47.1000 -65.3000 42° Northeast 530 610 35,000  Level Moncton Center
Thu 07:25:44 PM 47.2000 -65.1667 47° Northeast 530 610 35,000  Level Moncton Center
Thu 07:26:44 PM 47.3167 -64.9833 42° Northeast 530 610 35,000  Level Moncton Center
Thu 07:27:44 PM 47.4167 -64.8500 45° Northeast 530 610 35,000  Level Moncton Center
Thu 07:28:44 PM 47.5167 -64.7000 45° Northeast 530 610 35,000  Level Moncton Center
Thu 07:29:44 PM 47.6167 -64.5500 45° Northeast 530 610 35,000  Level Moncton Center
Thu 07:30:44 PM 47.7167 -64.4000 46° Northeast 530 610 35,000  Level Moncton Center
Thu 07:31:44 PM 47.8333 -64.2167 45° Northeast 530 610 35,000  Level Moncton Center
Thu 07:32:44 PM 47.9333 -64.0667 48° Northeast 530 610 35,000  Level Moncton Center
Thu 07:33:44 PM 48.0333 -63.9000 45° Northeast 540 621 35,000  Level Moncton Center
Thu 07:34:44 PM 48.1333 -63.7500 41° Northeast 540 621 35,000  Level Moncton Center
Thu 07:35:44 PM 48.2500 -63.6000 48° Northeast 540 621 35,000  Level Moncton Center
Thu 07:36:44 PM 48.3500 -63.4333 49° Northeast 530 610 35,000  Level Moncton Center
Thu 07:38:34 PM 48.5333 -63.1167 43° Northeast 530 610 35,000  Level Gander Center
Thu 07:39:34 PM 48.6500 -62.9500 45° Northeast 540 621 35,000  Level Gander Center
Thu 07:40:34 PM 48.7500 -62.8000 48° Northeast 540 621 35,000  Level Gander Center
Thu 07:41:34 PM 48.8500 -62.6333 46° Northeast 540 621 35,000  Level Gander Center
Thu 07:42:34 PM 48.9667 -62.4500 44° Northeast 540 621 35,000  Level Gander Center
Thu 07:43:34 PM 49.0667 -62.3000 47° Northeast 550 633 35,000  Level Gander Center
Thu 07:44:34 PM 49.1667 -62.1333 46° Northeast 550 633 35,000  Level Gander Center
Thu 07:45:34 PM 49.2833 -61.9500 50° Northeast 540 621 35,000  Level Gander Center
Thu 07:46:34 PM 49.3667 -61.8000 46° Northeast 540 621 35,000  Level Gander Center
Thu 07:47:34 PM 49.4833 -61.6167 44° Northeast 540 621 35,000  Level Gander Center
Thu 07:48:34 PM 49.5833 -61.4667 50° Northeast 550 633 35,000  Level Gander Center
Thu 07:49:34 PM 49.6833 -61.2833 50° Northeast 540 621 35,000  Level Gander Center
Thu 07:50:34 PM 49.7833 -61.1000 50° Northeast 540 621 35,000  Level Gander Center
Thu 07:51:34 PM 49.8833 -60.9167 44° Northeast 540 621 35,000  Level Gander Center
Thu 07:52:34 PM 49.9833 -60.7667 47° Northeast 550 633 35,000  Level Gander Center
Thu 07:53:34 PM 50.0833 -60.6000 48° Northeast 540 621 35,000  Level Gander Center
Thu 07:54:34 PM 50.2000 -60.4000 47° Northeast 550 633 35,000  Level Gander Center
Thu 07:55:34 PM 50.3000 -60.2333 49° Northeast 540 621 35,000  Level Gander Center
Thu 07:56:34 PM 50.4000 -60.0500 49° Northeast 550 633 35,000  Level Gander Center
Thu 07:57:34 PM 50.5000 -59.8667 49° Northeast 550 633 35,000  Level Gander Center
Thu 07:58:34 PM 50.6000 -59.6833 52° Northeast 550 633 35,000  Level Gander Center
Thu 07:59:34 PM 50.6833 -59.5167 47° Northeast 550 633 35,000  Level Gander Center
Thu 08:00:34 PM 50.8000 -59.3167 49° Northeast 550 633 35,000  Level Gander Center
Thu 08:01:34 PM 50.9000 -59.1333 49° Northeast 560 644 35,000  Level Gander Center
Thu 08:02:34 PM 51.0000 -58.9500 56° Northeast 560 644 35,000  Level Gander Center
Thu 08:04:44 PM 51.1833 -58.5167 54° Northeast 560 644 35,000  Level Moncton Center
Thu 08:05:34 PM 51.2667 -58.3333 49° Northeast 560 644 35,000  Level Gander Center
Thu 08:06:34 PM 51.3667 -58.1500 53° Northeast 560 644 35,000  Level Gander Center
Thu 08:07:34 PM 51.4667 -57.9333 62° Northeast 570 656 35,000  Level Gander Center
Thu 08:08:34 PM 51.5333 -57.7333 51° Northeast 560 644 35,000  Level Gander Center
Thu 08:09:34 PM 51.6333 -57.5333 58° Northeast 570 656 35,000  Level Gander Center
Thu 08:10:34 PM 51.7167 -57.3167 55° Northeast 570 656 35,000  Level Gander Center
Thu 08:11:34 PM 51.8167 -57.0833 51° Northeast 560 644 35,000  Level Gander Center
Thu 08:12:34 PM 51.9000 -56.9167 57° Northeast 560 644 35,000  Level Gander Center
Thu 08:12:50 PM 51.9333 -56.8333 56° Northeast 570 656 35,000  Level Gander Center
Thu 08:13:50 PM 52.0167 -56.6333 54° Northeast 560 644 35,000  Level Gander Center
Thu 08:14:34 PM 52.0833 -56.4833 56° Northeast 560 644 35,000  Level Gander Center
Thu 08:15:34 PM 52.1667 -56.2833 53° Northeast 560 644 35,000  Level Gander Center
Thu 08:16:34 PM 52.2667 -56.0667 58° Northeast 570 656 35,000  Level Gander Center
Thu 08:17:34 PM 52.3500 -55.8500 58° Northeast 560 644 35,000  Level Gander Center
Thu 08:18:34 PM 52.4333 -55.6333 56° Northeast 560 644 35,000  Level Gander Center
Thu 08:19:34 PM 52.5167 -55.4333 58° Northeast 560 644 35,000  Level Gander Center
Thu 08:20:34 PM 52.6000 -55.2167 50° Northeast 560 644 35,000  Level Gander Center
Thu 08:21:34 PM 52.7000 -55.0167 61° Northeast 560 644 35,000  Level Gander Center
Thu 08:22:34 PM 52.7667 -54.8167 61° Northeast 560 644 35,000  Level Gander Center
Thu 08:23:34 PM 52.8500 -54.5667 54° Northeast 550 633 35,000  Level Gander Center
Thu 08:29:00 PM 53.0667 -54.0667 67° East 583 671 35,000  Level ETMS Enhanced Traffic Management System
Thu 08:43:00 PM 54.0000 -50.0000 76° East 529 609 35,000  Level ETMS Enhanced Traffic Management System
Thu 09:25:00 PM 55.0000 -40.0000 76° East 517 595 35,000  Level ETMS Enhanced Traffic Management System
Thu 10:06:00 PM 55.9151 -29.0396 279° West  Level FlightAware Approximate
Thu 10:06:00 PM 56.0000 -30.0000 96° East 492 566 35,000  Level ETMS Enhanced Traffic Management System
Thu 10:07:00 PM 55.8997 -28.7970 95° East  Level FlightAware Approximate
Thu 10:08:00 PM 55.8838 -28.5546 95° East  Level FlightAware Approximate
Thu 10:09:00 PM 55.8690 -28.3120 95° East  Level FlightAware Approximate
Thu 10:10:00 PM 55.8537 -28.0696 95° East  Level FlightAware Approximate
Thu 10:14:00 PM 55.8174 -27.3346 98° East 492 566 35,000  Level FlightAware Transoceanic
Thu 10:15:00 PM 55.7980 -27.0937 98° East 492 566 35,000  Level FlightAware Transoceanic
Thu 10:16:00 PM 55.7780 -26.8529 98° East 492 566 35,000  Level FlightAware Transoceanic
Thu 10:17:00 PM 55.7577 -26.6124 99° East 492 566 35,000  Level FlightAware Transoceanic
Thu 10:18:00 PM 55.7368 -26.3722 99° East 492 566 35,000  Level FlightAware Transoceanic
Thu 10:19:00 PM 55.7155 -26.1322 99° East 492 566 35,000  Level FlightAware Transoceanic
Thu 10:20:00 PM 55.6937 -25.8925 99° East 492 566 35,000  Level FlightAware Transoceanic
Thu 10:21:00 PM 55.6714 -25.6530 99° East 492 566 35,000  Level FlightAware Transoceanic
Thu 10:22:00 PM 55.6487 -25.4139 100° East 492 566 35,000  Level FlightAware Transoceanic
Thu 10:23:00 PM 55.6255 -25.1750 100° East 492 566 35,000  Level FlightAware Transoceanic
Thu 10:24:00 PM 55.6019 -24.9363 100° East 492 566 35,000  Level FlightAware Transoceanic
Thu 10:25:00 PM 55.5778 -24.6980 100° East 492 566 35,000  Level FlightAware Transoceanic
Thu 10:26:00 PM 55.5532 -24.4600 100° East 492 566 35,000  Level FlightAware Transoceanic
Thu 10:27:00 PM 55.5282 -24.2223 101° East 492 566 35,000  Level FlightAware Transoceanic
Thu 10:28:00 PM 55.5027 -23.9849 101° East 492 566 35,000  Level FlightAware Transoceanic
Thu 10:29:00 PM 55.4767 -23.7478 101° East 492 566 35,000  Level FlightAware Transoceanic
Thu 10:30:00 PM 55.4503 -23.5110 101° East 492 566 35,000  Level FlightAware Transoceanic
Thu 10:31:00 PM 55.4234 -23.2745 101° East 492 566 35,000  Level FlightAware Transoceanic
Thu 10:32:00 PM 55.3961 -23.0384 102° East 492 566 35,000  Level FlightAware Transoceanic
Thu 10:33:00 PM 55.3683 -22.8025 102° East 492 566 35,000  Level FlightAware Transoceanic
Thu 10:34:00 PM 55.3401 -22.5671 102° East 492 566 35,000  Level FlightAware Transoceanic
Thu 10:35:00 PM 55.3114 -22.3319 102° East 492 566 35,000  Level FlightAware Transoceanic
Thu 10:36:00 PM 55.2823 -22.0971 102° East 492 566 35,000  Level FlightAware Transoceanic
Thu 10:37:00 PM 55.2527 -21.8626 103° East 492 566 35,000  Level FlightAware Transoceanic
Thu 10:38:00 PM 55.2227 -21.6285 103° East 492 566 35,000  Level FlightAware Transoceanic
Thu 10:39:00 PM 55.1922 -21.3948 103° East 492 566 35,000  Level FlightAware Transoceanic
Thu 10:40:00 PM 55.1613 -21.1614 103° East 492 566 35,000  Level FlightAware Transoceanic
Thu 10:41:00 PM 55.1299 -20.9284 103° East 492 566 35,000  Level FlightAware Transoceanic
Thu 10:42:00 PM 55.0981 -20.6957 104° East 492 566 35,000  Level FlightAware Transoceanic
Thu 10:43:00 PM 55.0658 -20.4634 104° East 492 566 35,000  Level FlightAware Transoceanic
Thu 10:44:00 PM 55.0331 -20.2315 104° East 492 566 35,000  Level FlightAware Transoceanic
Thu 10:45:00 PM 55.0000 -19.9999 101° East  Level FlightAware Approximate
Thu 10:46:00 PM 54.9733 -19.7659 101° East  Level FlightAware Approximate
Thu 10:47:00 PM 54.9462 -19.5323 102° East  Level FlightAware Approximate
Thu 10:48:00 PM 54.9186 -19.2989 102° East  Level FlightAware Approximate
Thu 10:49:00 PM 54.8906 -19.0659 102° East  Level FlightAware Approximate
Thu 10:50:00 PM 54.8622 -18.8332 102° East  Level FlightAware Approximate
Thu 10:51:00 PM 54.8333 -18.6009 102° East  Level FlightAware Approximate
Thu 10:52:00 PM 54.8039 -18.3688 102° East  Level FlightAware Approximate
Thu 10:53:00 PM 54.7741 -18.1371 103° East  Level FlightAware Approximate
Thu 10:54:00 PM 54.7439 -17.9058 103° East  Level FlightAware Approximate
Thu 10:55:00 PM 54.7132 -17.6748 103° East  Level FlightAware Approximate
Thu 10:56:00 PM 54.6821 -17.4441 103° East  Level FlightAware Approximate
Thu 10:57:00 PM 54.6506 -17.2139 103° East  Level FlightAware Approximate
Thu 10:58:00 PM 54.6186 -16.9839 106° East  Level FlightAware Approximate
Thu 10:59:00 PM 54.5800 -16.7577 104° East  Level FlightAware Approximate
Thu 11:00:00 PM 54.5478 -16.5283 104° East  Level FlightAware Approximate
Thu 11:01:00 PM 54.5151 -16.2992 104° East  Level FlightAware Approximate
Thu 11:02:00 PM 54.4819 -16.0706 104° East  Level FlightAware Approximate
Thu 11:03:00 PM 54.4484 -15.8423 104° East  Level FlightAware Approximate
Thu 11:04:00 PM 54.4144 -15.6143 104° East  Level FlightAware Approximate
Thu 11:05:00 PM 54.3799 -15.3868 105° East  Level FlightAware Approximate
Thu 11:06:00 PM 54.3451 -15.1596 105° East  Level FlightAware Approximate
Thu 11:07:00 PM 54.3098 -14.9328 105° East  Level FlightAware Approximate
Thu 11:08:00 PM 54.2741 -14.7064 105° East  Level FlightAware Approximate
Thu 11:09:00 PM 54.2380 -14.4804 105° East  Level FlightAware Approximate
Thu 11:10:00 PM 54.2014 -14.2549 106° East  Level FlightAware Approximate
Thu 11:11:00 PM 54.1645 -14.0297 106° East  Level FlightAware Approximate
Thu 11:12:00 PM 54.1258 -13.8058 102° East  Level FlightAware Approximate
Thu 11:13:00 PM 54.0961 -13.5779 106° East  Level FlightAware Approximate
Thu 11:14:00 PM 54.0577 -13.3540 106° East  Level FlightAware Approximate
Thu 11:15:00 PM 54.0189 -13.1305 107° East  Level FlightAware Approximate
Thu 11:16:00 PM 53.9796 -12.9074 107° East  Level FlightAware Approximate
Thu 11:17:00 PM 53.9400 -12.6848 107° East  Level FlightAware Approximate
Thu 11:18:00 PM 53.8999 -12.4626 107° East  Level FlightAware Approximate
Thu 11:19:00 PM 53.8595 -12.2408 107° East  Level FlightAware Approximate
Thu 11:20:00 PM 53.8186 -12.0194 107° East  Level FlightAware Approximate
Thu 11:21:00 PM 53.7773 -11.7984 108° East  Level FlightAware Approximate
Thu 11:22:00 PM 53.7356 -11.5779 108° East  Level FlightAware Approximate
Thu 11:23:00 PM 53.6935 -11.3579 108° East  Level FlightAware Approximate
Thu 11:24:00 PM 53.6510 -11.1383 114° Southeast  Level FlightAware Approximate
Thu 11:25:00 PM 53.5956 -10.9274 108° East  Level FlightAware Approximate
Thu 11:26:00 PM 53.5526 -10.7086 108° East  Level FlightAware Approximate
Thu 11:27:00 PM 53.5091 -10.4902 109° East  Level FlightAware Approximate
Thu 11:28:00 PM 53.4653 -10.2723 109° East  Level FlightAware Approximate
Thu 11:29:00 PM 53.4211 -10.0548 109° East  Level FlightAware Approximate
Thu 11:30:00 PM 53.3764 -9.8378 109° East  Level FlightAware Approximate
Thu 11:31:00 PM 53.3314 -9.6213 109° East  Level FlightAware Approximate
Thu 11:32:00 PM 53.2860 -9.4052 109° East  Level FlightAware Approximate
Thu 11:33:00 PM 53.2402 -9.1896 110° East  Level FlightAware Approximate
Thu 11:34:00 PM 53.1940 -8.9744 110° East  Level FlightAware Approximate
Thu 11:35:00 PM 53.1474 -8.7597 110° East  Level FlightAware Approximate
Thu 11:36:00 PM 53.1005 -8.5454 110° East  Level FlightAware Approximate
Thu 11:37:00 PM 53.0531 -8.3317 110° East  Level FlightAware Approximate
Thu 11:38:00 PM 53.0054 -8.1184 110° East  Level FlightAware Approximate
Thu 11:39:00 PM 52.9573 -7.9055 111° Southeast  Level FlightAware Approximate
Thu 11:40:00 PM 52.9088 -7.6932 111° Southeast  Level FlightAware Approximate
Thu 11:41:00 PM 52.8599 -7.4813 111° Southeast  Level FlightAware Approximate
Thu 11:42:00 PM 52.8107 -7.2699 111° Southeast  Level FlightAware Approximate
Thu 11:43:00 PM 52.7611 -7.0590 111° Southeast  Level FlightAware Approximate
Thu 11:44:00 PM 52.7111 -6.8486 112° Southeast  Level FlightAware Approximate
Thu 11:45:00 PM 52.6607 -6.6386 112° Southeast  Level FlightAware Approximate
Thu 11:46:00 PM 52.6100 -6.4292 112° Southeast  Level FlightAware Approximate
Thu 11:47:00 PM 52.5589 -6.2202 112° Southeast  Level FlightAware Approximate
Thu 11:48:00 PM 52.5074 -6.0117 109° East  Level FlightAware Approximate
Thu 11:49:00 PM 52.4622 -5.7996 112° Southeast  Level FlightAware Approximate
Thu 11:50:00 PM 52.4097 -5.5922 114° Southeast  Level FlightAware Approximate
Thu 11:51:00 PM 52.3539 -5.3876 115° Southeast  Level FlightAware Approximate
Thu 11:52:00 PM 52.2964 -5.1844 115° Southeast  Level FlightAware Approximate
Thu 11:53:00 PM 52.2385 -4.9816 115° Southeast  Level FlightAware Approximate
Thu 11:54:00 PM 52.1803 -4.7795 115° Southeast  Level FlightAware Approximate
Thu 11:55:00 PM 52.1218 -4.5778 115° Southeast  Level FlightAware Approximate
Thu 11:56:00 PM 52.0629 -4.3767 116° Southeast  Level FlightAware Approximate
Thu 11:57:00 PM 52.0037 -4.1761 116° Southeast  Level FlightAware Approximate
Thu 11:58:00 PM 51.9441 -3.9761 103° East  Level FlightAware Approximate
Thu 11:59:00 PM 51.9142 -3.7668 120° Southeast  Level FlightAware Approximate
Fri 12:00:00 AM 51.8451 -3.5755 120° Southeast  Level FlightAware Approximate
Fri 12:01:00 AM 51.7756 -3.3847 121° Southeast  Level FlightAware Approximate
Fri 12:02:00 AM 51.7059 -3.1945 121° Southeast  Level FlightAware Approximate
Fri 12:03:00 AM 51.6358 -3.0049 85° East  Level FlightAware Approximate
Fri 12:04:00 AM 51.6477 -2.7997 124° Southeast  Level FlightAware Approximate
Fri 12:05:00 AM 51.5705 -2.6176 124° Southeast  Level FlightAware Approximate
Fri 12:06:00 AM 51.4932 -2.4361 125° Southeast  Level FlightAware Approximate
Fri 12:07:00 AM 51.4155 -2.2553 125° Southeast  Level FlightAware Approximate
Fri 12:08:00 AM 51.3375 -2.0750 126° Southeast  Level FlightAware Approximate
Fri 12:09:00 AM 51.2574 -1.8976 126° Southeast  Level FlightAware Approximate
Fri 12:10:00 AM 51.1770 -1.7207 126° Southeast  Level FlightAware Approximate
Fri 12:11:00 AM 51.0961 -1.5447 127° Southeast  Level FlightAware Approximate
Fri 12:12:00 AM 51.0140 -1.3706 127° Southeast  Level FlightAware Approximate
Fri 12:13:00 AM 50.9315 -1.1971 127° Southeast  Level FlightAware Approximate
Fri 12:14:00 AM 50.8489 -1.0242 127° Southeast  Level FlightAware Approximate
Fri 12:15:00 AM 50.7659 -0.8518 127° Southeast  Level FlightAware Approximate
Fri 12:16:00 AM 50.6828 -0.6802 127° Southeast  Level FlightAware Approximate
Fri 12:17:00 AM 50.5993 -0.5091 128° Southeast  Level FlightAware Approximate
Fri 12:18:00 AM 50.5156 -0.3386 128° Southeast  Level FlightAware Approximate
Fri 12:19:00 AM 50.4317 -0.1687 128° Southeast  Level FlightAware Approximate
Fri 12:20:00 AM 50.3475 0.0005 128° Southeast  Level FlightAware Approximate
Fri 12:21:00 AM 50.2631 0.1692 128° Southeast  Level FlightAware Approximate
Fri 12:22:00 AM 50.1784 0.3373 128° Southeast  Level FlightAware Approximate
Fri 12:23:00 AM 50.0935 0.5048 128° Southeast  Level FlightAware Approximate
Fri 12:24:00 AM 50.0084 0.6717 129° Southeast  Level FlightAware Approximate
Fri 12:25:00 AM 49.9230 0.8379 129° Southeast  Level FlightAware Approximate
Fri 12:26:00 AM 49.8373 1.0037 129° Southeast  Level FlightAware Approximate
Fri 12:27:00 AM 49.7515 1.1688 129° Southeast  Level FlightAware Approximate
Fri 12:28:00 AM 49.6654 1.3333 129° Southeast  Level FlightAware Approximate
Fri 12:29:00 AM 49.5791 1.4973 93° East  Level FlightAware Approximate
Fri 12:30:00 AM 49.5713 1.6999 136° Southeast  Level FlightAware Approximate
Fri 12:31:00 AM 49.4734 1.8473 138° Southeast  Level FlightAware Approximate
Fri 12:32:00 AM 49.3726 1.9874 135° Southeast  Level FlightAware Approximate
Fri 12:33:00 AM 49.2759 2.1361 137° Southeast  Level FlightAware Approximate
Fri 12:34:00 AM 49.1755 2.2785 134° Southeast  Level FlightAware Approximate
Fri 12:35:00 AM 49.0799 2.4280 139° Southeast  Level FlightAware Approximate
Fri 12:36:00 AM 49.0000 2.5333 41° Northeast  Level FlightAware Approximate
Fri 12:37:00 AM 49.1039 2.6692 301° West  Level Estimated
Fri 12:38:00 AM 49.3586 2.0090 135° Southeast  Level FlightAware Approximate
Fri 12:39:00 AM 49.2614 2.1568 135° Southeast  Level FlightAware Approximate
Fri 12:40:00 AM 49.1640 2.3039 135° Southeast  Level FlightAware Approximate
Fri 12:41:00 AM 49.0663 2.4504 129° Southeast  Level FlightAware Approximate
Fri 12:42:00 AM 48.9795 2.6118 309° West  Level Estimated
Fri 12:43:00 AM 49.0663 2.4504 129° Southeast  Level Estimated
Fri 12:44:00 AM 48.9795 2.6118 309° West  Level Estimated
Fri 12:45:00 AM 49.0663 2.4504 141° Southeast  Level Estimated
Fri 12:46:00 AM 49.0000 2.5333 41° Northeast  Level FlightAware Approximate
Fri 12:47:00 AM 49.1039 2.6692 221° Southwest  Level Estimated
Fri 12:48:00 AM 49.0000 2.5333 41° Northeast  Level FlightAware Approximate
Fri 12:49:00 AM 49.1039 2.6692 221° Southwest  Level Estimated
Fri 12:50:00 AM 49.0000 2.5333 41° Northeast  Level FlightAware Approximate
Fri 12:51:00 AM 49.1039 2.6692 221° Southwest  Level Estimated
Fri 12:52:00 AM 49.0000 2.5333 41° Northeast  Level FlightAware Approximate
Fri 12:53:00 AM 49.1039 2.6692 221° Southwest  Level Estimated
Fri 12:54:00 AM 49.0000 2.5333 41° Northeast  Level FlightAware Approximate
Fri 12:55:00 AM 49.1039 2.6692 221° Southwest  Level Estimated
Fri 12:56:00 AM 49.0000 2.5333 41° Northeast  Level FlightAware Approximate
Fri 12:57:00 AM 49.1039 2.6692 221° Southwest  Level Estimated
Fri 12:58:00 AM 49.0000 2.5333 41° Northeast  Level FlightAware Approximate
Fri 12:59:00 AM 49.1039 2.6692 221° Southwest  Level Estimated
Fri 01:00:00 AM 49.0000 2.5333 41° Northeast  Level FlightAware Approximate
Fri 01:01:00 AM 49.1039 2.6692 41° Northeast  Level Estimated

Login

Don't have an account? Register now (free) for customized features, flight alerts, and more!